Time;durP1;ratioP1;P1;durP2;ratioP2;P2;SDS_P1;SDS_P2;PMS_P1;PMS_P2;Temp;Humidity;BMP_temperature;BMP_pressure;BME280_temperature;BME280_humidity;BME280_pressure;Samples;Min_cycle;Max_cycle;Signal;HPM_P1;HPM_P2
2021/08/19 00:01:05;;;;;;;13.43;10.57;;;18.00;99.90;;;;;;5029174;28;20030;-40
2021/08/19 00:03:34;;;;;;;14.25;11.48;;;17.90;99.90;;;;;;5030094;28;20029;-42
2021/08/19 00:06:08;;;;;;;12.20;10.90;;;17.90;99.90;;;;;;5017908;28;20041;-39
2021/08/19 00:08:37;;;;;;;13.23;11.48;;;17.90;99.90;;;;;;5029418;28;20025;-40
2021/08/19 00:11:04;;;;;;;13.25;11.63;;;17.90;99.90;;;;;;5029450;28;20018;-40
2021/08/19 00:13:42;;;;;;;13.13;10.32;;;17.90;99.90;;;;;;5028779;28;20045;-42
2021/08/19 00:16:08;;;;;;;11.35;10.07;;;17.90;99.90;;;;;;5029280;28;20032;-42
2021/08/19 00:18:35;;;;;;;11.60;9.32;;;17.90;99.90;;;;;;5029121;28;20029;-39
2021/08/19 00:21:01;;;;;;;12.23;10.15;;;17.90;99.90;;;;;;5027978;28;20350;-37
2021/08/19 00:23:26;;;;;;;12.45;10.07;;;17.90;99.90;;;;;;5029913;28;20036;-40
2021/08/19 00:25:52;;;;;;;10.75;9.32;;;17.90;99.90;;;;;;5028330;28;20018;-38
2021/08/19 00:28:17;;;;;;;11.07;9.13;;;17.90;99.90;;;;;;5029079;28;20504;-40
2021/08/19 00:30:43;;;;;;;11.73;10.50;;;17.90;99.90;;;;;;5028751;28;20018;-42
2021/08/19 00:33:12;;;;;;;11.13;9.45;;;17.90;99.90;;;;;;5028944;28;20038;-40
2021/08/19 00:35:41;;;;;;;13.23;9.82;;;18.00;99.90;;;;;;5027202;28;20105;-41
2021/08/19 00:38:10;;;;;;;12.32;10.35;;;18.00;99.90;;;;;;5013986;28;20033;-41
2021/08/19 00:40:35;;;;;;;11.32;10.13;;;18.00;99.90;;;;;;5018890;28;20060;-38
2021/08/19 00:43:07;;;;;;;13.50;9.70;;;18.00;99.90;;;;;;5027157;28;20021;-43
2021/08/19 00:45:43;;;;;;;12.75;9.57;;;18.10;99.90;;;;;;5026528;28;20033;-39
2021/08/19 00:48:08;;;;;;;12.00;9.48;;;18.10;99.90;;;;;;5025793;28;20017;-39
2021/08/19 00:50:39;;;;;;;12.60;10.18;;;18.10;99.90;;;;;;5026912;28;20028;-42
2021/08/19 00:53:05;;;;;;;11.68;9.20;;;18.10;99.90;;;;;;5026067;28;20067;-39
2021/08/19 00:55:33;;;;;;;11.20;9.85;;;18.10;99.90;;;;;;5032314;28;20021;-43
2021/08/19 00:57:59;;;;;;;11.15;8.93;;;18.10;99.90;;;;;;5031956;28;20429;-41
2021/08/19 01:00:25;;;;;;;11.35;9.10;;;18.10;99.90;;;;;;5032976;28;20525;-39
2021/08/19 01:02:58;;;;;;;10.20;8.10;;;18.10;99.90;;;;;;5031056;28;20520;-41
2021/08/19 01:05:29;;;;;;;10.13;8.50;;;18.10;99.90;;;;;;5031231;28;20022;-41
2021/08/19 01:07:56;;;;;;;14.93;10.97;;;18.10;99.90;;;;;;5032765;28;20071;-42
2021/08/19 01:10:26;;;;;;;12.27;9.75;;;18.10;99.90;;;;;;5031638;28;20033;-39
2021/08/19 01:12:52;;;;;;;12.30;10.07;;;18.10;99.90;;;;;;5031830;28;20044;-42
2021/08/19 01:15:18;;;;;;;9.60;8.52;;;18.00;99.90;;;;;;5032716;28;20053;-43
2021/08/19 01:17:53;;;;;;;11.68;7.88;;;18.00;99.90;;;;;;5032008;28;20068;-42
2021/08/19 01:20:24;;;;;;;10.27;8.38;;;18.10;99.90;;;;;;5032581;28;20053;-41
2021/08/19 01:22:49;;;;;;;10.43;8.50;;;18.10;99.90;;;;;;5031624;28;20033;-42
2021/08/19 01:25:15;;;;;;;12.65;8.95;;;18.10;99.90;;;;;;5031111;28;20017;-41
2021/08/19 01:27:41;;;;;;;9.80;8.45;;;18.10;99.90;;;;;;5032111;28;20418;-40
2021/08/19 01:30:07;;;;;;;10.98;8.65;;;18.10;99.90;;;;;;5032003;28;20075;-36
2021/08/19 01:32:32;;;;;;;12.30;8.18;;;18.10;99.90;;;;;;5031908;28;20071;-37
2021/08/19 01:34:58;;;;;;;9.60;7.63;;;18.10;99.90;;;;;;5031519;28;20032;-39
2021/08/19 01:37:23;;;;;;;10.43;8.55;;;18.00;99.90;;;;;;5031938;28;20029;-41
2021/08/19 01:39:52;;;;;;;10.30;7.95;;;18.00;99.90;;;;;;5031181;28;20026;-39
2021/08/19 01:42:17;;;;;;;8.73;7.80;;;17.90;99.90;;;;;;5032047;28;20022;-42
2021/08/19 01:44:43;;;;;;;10.90;8.55;;;17.90;99.90;;;;;;5031181;28;20040;-42
2021/08/19 01:47:11;;;;;;;12.35;9.43;;;17.90;99.90;;;;;;5031863;28;20033;-40
2021/08/19 01:49:38;;;;;;;9.93;8.27;;;17.90;99.90;;;;;;5032121;28;20013;-39
2021/08/19 01:52:05;;;;;;;10.38;8.43;;;18.00;99.90;;;;;;5031228;28;20038;-41
2021/08/19 01:54:36;;;;;;;10.13;8.45;;;18.00;99.90;;;;;;5031752;28;20080;-40
2021/08/19 01:57:07;;;;;;;11.63;7.97;;;18.00;99.90;;;;;;5031639;28;20031;-39
2021/08/19 01:59:33;;;;;;;10.75;8.23;;;18.10;99.90;;;;;;5030143;28;20377;-42
2021/08/19 02:02:00;;;;;;;11.23;7.60;;;18.10;99.90;;;;;;5031030;28;20040;-42
2021/08/19 02:04:26;;;;;;;11.43;7.93;;;18.20;99.90;;;;;;5031911;28;20502;-40
2021/08/19 02:06:52;;;;;;;10.77;8.63;;;18.20;99.90;;;;;;5031029;28;20029;-42
2021/08/19 02:09:17;;;;;;;10.20;7.78;;;18.20;99.90;;;;;;5031065;28;20084;-42
2021/08/19 02:11:44;;;;;;;9.73;8.35;;;18.20;99.90;;;;;;5032115;28;20087;-38
2021/08/19 02:14:09;;;;;;;10.82;8.25;;;18.30;99.90;;;;;;5030360;28;20138;-41
2021/08/19 02:16:35;;;;;;;9.63;7.70;;;18.30;99.90;;;;;;5032138;28;20109;-42
2021/08/19 02:19:03;;;;;;;10.73;8.23;;;18.30;99.90;;;;;;5031091;28;20060;-40
2021/08/19 02:21:29;;;;;;;10.45;8.27;;;18.30;99.90;;;;;;5031340;28;20290;-37
2021/08/19 02:23:54;;;;;;;10.88;8.50;;;18.30;99.90;;;;;;5030785;28;20109;-38
2021/08/19 02:26:20;;;;;;;11.18;8.13;;;18.30;99.90;;;;;;5030679;28;20053;-38
2021/08/19 02:28:48;;;;;;;10.52;7.88;;;18.40;99.90;;;;;;5030616;28;20053;-38
2021/08/19 02:31:14;;;;;;;9.90;8.18;;;18.40;99.90;;;;;;5030955;28;20040;-41
2021/08/19 02:33:39;;;;;;;10.00;8.68;;;18.30;99.90;;;;;;5030373;28;20116;-39
2021/08/19 02:36:05;;;;;;;11.23;8.48;;;18.40;99.90;;;;;;5031072;28;20018;-38
2021/08/19 02:38:33;;;;;;;12.30;9.05;;;18.40;99.90;;;;;;5030672;28;20125;-37
2021/08/19 02:40:59;;;;;;;11.90;9.60;;;18.40;99.90;;;;;;5029836;28;20113;-39
2021/08/19 02:43:24;;;;;;;10.82;9.57;;;18.40;99.90;;;;;;5031168;28;20124;-42
2021/08/19 02:45:50;;;;;;;12.85;9.75;;;18.40;99.90;;;;;;5030330;28;20026;-42
2021/08/19 02:48:15;;;;;;;14.00;9.60;;;18.40;99.90;;;;;;5030114;28;20052;-43
2021/08/19 02:50:41;;;;;;;13.45;11.07;;;18.40;99.90;;;;;;5029811;28;20523;-41
2021/08/19 02:53:06;;;;;;;16.50;11.18;;;18.40;99.90;;;;;;5030152;28;20049;-37
2021/08/19 02:55:32;;;;;;;13.45;10.90;;;18.40;99.90;;;;;;5029384;28;20022;-41
2021/08/19 02:58:00;;;;;;;14.55;11.85;;;18.40;99.90;;;;;;5030032;28;20033;-39
2021/08/19 03:00:26;;;;;;;16.35;13.73;;;18.40;99.90;;;;;;5029854;28;20129;-40
2021/08/19 03:02:54;;;;;;;16.15;14.20;;;18.40;99.90;;;;;;5029495;28;20021;-40
2021/08/19 03:05:20;;;;;;;15.40;13.65;;;18.50;99.90;;;;;;5030601;28;20014;-41
2021/08/19 03:07:45;;;;;;;19.00;14.52;;;18.50;99.90;;;;;;5030035;28;20022;-39
2021/08/19 03:10:11;;;;;;;19.35;15.07;;;18.50;99.90;;;;;;5030210;28;20036;-39
2021/08/19 03:12:37;;;;;;;19.73;15.90;;;18.50;99.90;;;;;;5030607;28;20095;-39
2021/08/19 03:15:03;;;;;;;18.15;15.82;;;18.50;99.90;;;;;;5030188;28;20087;-42
2021/08/19 03:17:29;;;;;;;18.50;16.33;;;18.50;99.90;;;;;;5029199;28;20025;-38
2021/08/19 03:19:55;;;;;;;22.55;18.17;;;18.50;99.90;;;;;;5029779;28;20203;-43
2021/08/19 03:22:21;;;;;;;20.98;17.33;;;18.50;99.90;;;;;;5029089;28;20029;-38
2021/08/19 03:24:46;;;;;;;18.58;15.40;;;18.50;99.90;;;;;;5029650;28;20022;-41
2021/08/19 03:27:13;;;;;;;19.23;16.40;;;18.50;99.90;;;;;;5062211;28;20068;-37
2021/08/19 03:29:39;;;;;;;18.27;15.15;;;18.50;99.90;;;;;;5029172;28;20112;-44
2021/08/19 03:32:05;;;;;;;20.67;16.05;;;18.50;99.90;;;;;;5029888;28;20429;-42
2021/08/19 03:34:31;;;;;;;19.38;15.23;;;18.50;99.90;;;;;;5030591;28;20022;-43
2021/08/19 03:36:57;;;;;;;25.25;18.45;;;18.50;99.90;;;;;;5028629;28;20387;-41
2021/08/19 03:39:23;;;;;;;19.88;16.63;;;18.50;99.90;;;;;;5029952;28;20021;-41
2021/08/19 03:41:50;;;;;;;17.98;13.60;;;18.50;99.90;;;;;;5029129;28;20067;-40
2021/08/19 03:44:16;;;;;;;15.00;13.40;;;18.50;99.90;;;;;;5029069;28;20048;-40
2021/08/19 03:46:44;;;;;;;18.10;14.32;;;18.40;99.90;;;;;;5029241;28;20091;-40
2021/08/19 03:49:10;;;;;;;15.00;13.30;;;18.50;99.90;;;;;;5029945;28;20040;-42
2021/08/19 03:51:36;;;;;;;17.83;15.05;;;18.40;99.90;;;;;;5028710;28;20105;-42
2021/08/19 03:54:02;;;;;;;15.65;12.73;;;18.40;99.90;;;;;;5029284;28;20105;-42
2021/08/19 03:56:28;;;;;;;18.52;14.10;;;18.40;99.90;;;;;;5029273;28;20175;-40
2021/08/19 03:58:57;;;;;;;15.25;13.63;;;18.40;99.90;;;;;;5029388;28;20218;-41
2021/08/19 04:01:23;;;;;;;16.65;12.73;;;18.30;99.90;;;;;;5029645;28;20100;-39
2021/08/19 04:03:50;;;;;;;16.88;12.65;;;18.30;99.90;;;;;;5029163;28;20385;-37
2021/08/19 04:06:15;;;;;;;16.35;11.50;;;18.30;99.90;;;;;;5028339;28;20021;-40
2021/08/19 04:08:41;;;;;;;14.23;10.02;;;18.30;99.90;;;;;;5029274;28;20043;-40
2021/08/19 04:11:06;;;;;;;10.75;9.65;;;18.30;99.90;;;;;;5029633;28;20040;-39
2021/08/19 04:13:32;;;;;;;12.15;10.00;;;18.30;99.90;;;;;;5027737;28;20046;-39
2021/08/19 04:15:57;;;;;;;11.80;9.60;;;18.40;99.90;;;;;;5028759;28;20083;-41
2021/08/19 04:18:23;;;;;;;13.23;9.45;;;18.30;99.90;;;;;;5028866;28;20018;-41
2021/08/19 04:20:48;;;;;;;10.13;8.90;;;18.30;99.90;;;;;;5028515;28;20455;-44
2021/08/19 04:23:14;;;;;;;11.25;9.63;;;18.30;99.90;;;;;;5029361;28;20017;-39
2021/08/19 04:25:40;;;;;;;10.35;8.93;;;18.30;99.90;;;;;;5028085;28;20520;-40
2021/08/19 04:28:05;;;;;;;9.95;8.43;;;18.40;99.90;;;;;;5027741;28;20095;-41
2021/08/19 04:30:40;;;;;;;10.80;8.30;;;18.40;99.90;;;;;;5028385;28;20017;-42
2021/08/19 04:33:06;;;;;;;9.82;7.93;;;18.40;99.90;;;;;;5028327;28;20485;-39
2021/08/19 04:35:32;;;;;;;9.88;8.02;;;18.30;99.90;;;;;;5028965;28;20028;-42
2021/08/19 04:37:58;;;;;;;11.48;8.77;;;18.30;99.90;;;;;;5028469;28;20060;-40
2021/08/19 04:40:24;;;;;;;10.93;8.27;;;18.30;99.90;;;;;;5028335;28;20056;-41
2021/08/19 04:42:50;;;;;;;12.40;8.82;;;18.30;99.90;;;;;;5027296;28;20502;-41
2021/08/19 04:45:15;;;;;;;10.70;8.07;;;18.30;99.90;;;;;;5029111;28;20022;-41
2021/08/19 04:47:41;;;;;;;10.15;7.95;;;18.30;99.90;;;;;;5027786;28;20036;-39
2021/08/19 04:50:07;;;;;;;9.55;7.13;;;18.30;99.90;;;;;;5028295;28;20377;-41
2021/08/19 04:52:33;;;;;;;9.98;7.95;;;18.30;99.90;;;;;;5029124;28;20084;-42
2021/08/19 04:54:58;;;;;;;10.57;8.48;;;18.30;99.90;;;;;;5027388;28;20017;-39
2021/08/19 04:57:24;;;;;;;10.27;8.32;;;18.30;99.90;;;;;;5028959;28;20026;-42
2021/08/19 04:59:50;;;;;;;10.05;8.55;;;18.30;99.90;;;;;;5028109;28;20029;-37
2021/08/19 05:02:15;;;;;;;11.00;8.40;;;18.30;99.90;;;;;;5028720;28;20037;-39
2021/08/19 05:04:41;;;;;;;9.95;7.82;;;18.30;99.90;;;;;;5027956;28;20053;-39
2021/08/19 05:07:06;;;;;;;10.02;8.10;;;18.30;99.90;;;;;;5028403;28;20104;-40
2021/08/19 05:09:32;;;;;;;10.15;8.35;;;18.30;99.90;;;;;;5028005;28;20110;-41
2021/08/19 05:12:04;;;;;;;9.52;8.18;;;18.30;99.90;;;;;;5027587;28;20547;-42
2021/08/19 05:14:29;;;;;;;10.48;8.15;;;18.40;99.90;;;;;;5027991;28;20107;-41
2021/08/19 05:16:55;;;;;;;10.75;7.90;;;18.40;99.90;;;;;;5026995;28;20017;-39
2021/08/19 05:19:20;;;;;;;11.95;8.50;;;18.40;99.90;;;;;;5027633;28;20033;-41
2021/08/19 05:21:46;;;;;;;10.25;9.15;;;18.40;99.90;;;;;;5027968;28;20025;-37
2021/08/19 05:24:11;;;;;;;11.57;9.70;;;18.40;99.90;;;;;;5037155;28;20052;-42
2021/08/19 05:26:37;;;;;;;10.77;9.32;;;18.40;99.90;;;;;;5034390;28;20021;-36
2021/08/19 05:29:15;;;;;;;12.48;9.48;;;18.40;99.90;;;;;;5035031;28;20479;-40
2021/08/19 05:31:41;;;;;;;12.35;9.27;;;18.40;99.90;;;;;;5031764;28;20025;-39
2021/08/19 05:34:08;;;;;;;12.35;10.00;;;18.50;99.90;;;;;;5028329;28;20358;-41
2021/08/19 05:36:34;;;;;;;12.98;9.90;;;18.40;99.90;;;;;;5021155;28;20025;-39
2021/08/19 05:39:06;;;;;;;14.40;11.63;;;18.40;99.90;;;;;;5024652;28;20025;-39
2021/08/19 05:41:32;;;;;;;16.87;12.77;;;18.40;99.90;;;;;;5030422;28;20336;-40
2021/08/19 05:43:57;;;;;;;19.73;12.77;;;18.40;99.90;;;;;;5026497;28;20030;-39
2021/08/19 05:46:23;;;;;;;17.33;12.98;;;18.40;99.90;;;;;;5030370;28;20018;-39
2021/08/19 05:48:49;;;;;;;20.05;14.25;;;18.40;99.90;;;;;;5030616;28;20040;-42
2021/08/19 05:51:14;;;;;;;21.52;14.95;;;18.40;99.90;;;;;;5030074;28;20040;-36
2021/08/19 05:53:41;;;;;;;16.05;12.85;;;18.40;99.90;;;;;;5030019;28;20523;-40
2021/08/19 05:56:07;;;;;;;15.98;12.07;;;18.50;99.90;;;;;;5029019;28;20068;-39
2021/08/19 05:58:33;;;;;;;19.30;14.07;;;18.50;99.90;;;;;;5030276;28;20025;-41
2021/08/19 06:00:58;;;;;;;17.10;11.88;;;18.50;99.90;;;;;;5039892;28;20025;-40
2021/08/19 06:03:24;;;;;;;20.48;13.85;;;18.60;99.90;;;;;;5030080;28;20017;-39
2021/08/19 06:05:50;;;;;;;15.38;12.32;;;18.60;99.90;;;;;;5033280;28;20068;-41
2021/08/19 06:08:16;;;;;;;17.42;11.70;;;18.60;99.90;;;;;;5039710;28;20115;-39
2021/08/19 06:10:41;;;;;;;15.75;11.68;;;18.60;99.90;;;;;;5040626;28;20056;-42
2021/08/19 06:13:07;;;;;;;20.88;12.38;;;18.60;99.90;;;;;;5039312;28;20073;-40
2021/08/19 06:15:42;;;;;;;16.95;12.52;;;18.60;99.90;;;;;;5030657;28;20018;-36
2021/08/19 06:18:07;;;;;;;16.98;11.50;;;18.60;99.90;;;;;;5030755;28;20021;-39
2021/08/19 06:20:33;;;;;;;18.13;11.82;;;18.60;99.90;;;;;;5030982;28;20030;-41
2021/08/19 06:22:59;;;;;;;15.82;11.32;;;18.60;99.90;;;;;;5029661;28;20028;-39
2021/08/19 06:25:25;;;;;;;14.48;9.88;;;18.70;99.90;;;;;;5030168;28;20017;-39
2021/08/19 06:27:53;;;;;;;16.95;11.02;;;18.70;99.90;;;;;;5038901;28;20056;-44
2021/08/19 06:30:18;;;;;;;14.90;12.05;;;18.70;99.90;;;;;;5031416;28;20018;-44
2021/08/19 06:32:44;;;;;;;17.13;12.02;;;18.70;99.90;;;;;;5029053;28;20488;-44
2021/08/19 06:35:10;;;;;;;15.38;10.57;;;18.70;99.90;;;;;;5030990;28;20412;-42
2021/08/19 06:37:37;;;;;;;15.88;11.93;;;18.70;99.90;;;;;;5031047;28;20034;-44
2021/08/19 06:40:03;;;;;;;15.02;11.93;;;18.70;99.90;;;;;;5029998;28;20083;-44
2021/08/19 06:42:28;;;;;;;19.65;12.85;;;18.70;99.90;;;;;;5030784;28;20105;-42
2021/08/19 06:44:54;;;;;;;14.88;11.23;;;18.70;99.90;;;;;;5030591;28;20474;-40
2021/08/19 06:47:19;;;;;;;13.98;10.05;;;18.70;99.90;;;;;;5030384;28;20029;-41
2021/08/19 06:49:46;;;;;;;14.00;11.25;;;18.70;99.90;;;;;;5030564;28;20018;-44
2021/08/19 06:52:12;;;;;;;18.88;14.48;;;18.70;99.90;;;;;;5030497;28;20105;-43
2021/08/19 06:54:37;;;;;;;16.10;12.77;;;18.70;99.90;;;;;;5030059;28;20488;-37
2021/08/19 06:57:03;;;;;;;18.98;13.32;;;18.70;99.90;;;;;;5030333;28;20026;-42
2021/08/19 06:59:29;;;;;;;14.75;10.80;;;18.70;99.90;;;;;;5031641;28;20030;-43
2021/08/19 07:01:54;;;;;;;15.90;12.60;;;18.70;99.90;;;;;;5029655;28;20014;-44
2021/08/19 07:04:21;;;;;;;13.48;10.70;;;18.70;99.90;;;;;;5029758;28;20029;-45
2021/08/19 07:06:46;;;;;;;17.45;12.68;;;18.70;99.90;;;;;;5030614;28;20556;-42
2021/08/19 07:09:13;;;;;;;20.17;14.90;;;18.70;99.90;;;;;;5029777;28;20029;-44
2021/08/19 07:11:38;;;;;;;16.95;14.10;;;18.70;99.90;;;;;;5029768;28;20417;-44
2021/08/19 07:14:04;;;;;;;18.02;13.25;;;18.60;99.90;;;;;;5030036;28;20187;-45
2021/08/19 07:16:29;;;;;;;24.63;17.55;;;18.70;99.90;;;;;;5030078;28;20040;-41
2021/08/19 07:18:55;;;;;;;20.17;14.02;;;18.60;99.90;;;;;;5029428;28;20049;-41
2021/08/19 07:21:21;;;;;;;19.08;13.68;;;18.60;99.90;;;;;;5029760;28;20039;-40
2021/08/19 07:23:46;;;;;;;17.73;12.82;;;18.70;99.90;;;;;;5029364;28;20468;-41
2021/08/19 07:26:12;;;;;;;19.95;14.07;;;18.70;99.90;;;;;;5030237;28;20037;-41
2021/08/19 07:28:37;;;;;;;18.02;13.50;;;18.70;99.90;;;;;;5029844;28;20740;-42
2021/08/19 07:31:03;;;;;;;16.80;11.88;;;18.70;99.90;;;;;;5029783;28;20573;-41
2021/08/19 07:33:29;;;;;;;14.50;12.35;;;18.80;99.90;;;;;;5029945;28;20037;-41
2021/08/19 07:35:54;;;;;;;12.57;9.65;;;18.80;99.90;;;;;;5029089;28;20029;-43
2021/08/19 07:38:20;;;;;;;22.45;14.23;;;18.80;99.90;;;;;;5030054;28;20469;-42
2021/08/19 07:40:47;;;;;;;17.73;13.02;;;18.80;99.90;;;;;;5029399;28;20100;-39
2021/08/19 07:43:16;;;;;;;14.43;11.13;;;18.80;99.90;;;;;;5029232;28;20474;-42
2021/08/19 07:45:42;;;;;;;18.95;14.13;;;18.90;99.90;;;;;;5028976;28;20021;-43
2021/08/19 07:48:13;;;;;;;17.98;12.52;;;18.90;99.90;;;;;;5029748;28;20556;-41
2021/08/19 07:50:39;;;;;;;17.02;13.77;;;19.00;99.90;;;;;;5028757;28;20030;-42
2021/08/19 07:53:06;;;;;;;11.23;10.02;;;19.10;99.90;;;;;;5030180;28;20038;-43
2021/08/19 07:55:32;;;;;;;12.70;10.55;;;19.10;99.90;;;;;;5041774;28;20417;-43
2021/08/19 07:57:58;;;;;;;14.02;11.30;;;19.20;99.90;;;;;;5036079;28;20131;-40
2021/08/19 08:00:26;;;;;;;12.85;10.52;;;19.20;99.90;;;;;;5035524;28;20100;-44
2021/08/19 08:02:52;;;;;;;15.25;12.20;;;19.20;99.90;;;;;;5028611;28;20072;-39
2021/08/19 08:05:18;;;;;;;20.38;12.02;;;19.20;99.90;;;;;;5028947;28;20101;-43
2021/08/19 08:07:44;;;;;;;16.38;12.05;;;19.20;99.90;;;;;;5029227;28;20032;-41
2021/08/19 08:10:11;;;;;;;14.13;11.38;;;19.20;99.90;;;;;;5028759;28;20439;-41
2021/08/19 08:12:37;;;;;;;17.80;12.02;;;19.20;99.90;;;;;;5033807;28;20045;-38
2021/08/19 08:15:03;;;;;;;18.02;11.95;;;19.20;99.90;;;;;;5031466;28;20049;-44
2021/08/19 08:17:31;;;;;;;13.35;10.05;;;19.10;99.90;;;;;;5027337;28;20044;-43
2021/08/19 08:19:57;;;;;;;13.52;10.32;;;19.10;99.90;;;;;;5028564;28;20379;-44
2021/08/19 08:22:23;;;;;;;17.95;12.35;;;19.10;99.90;;;;;;5028599;28;20480;-41
2021/08/19 08:24:49;;;;;;;12.82;10.68;;;19.10;99.90;;;;;;5027991;28;20422;-42
2021/08/19 08:27:14;;;;;;;15.55;11.50;;;19.10;99.90;;;;;;5029079;28;20025;-38
2021/08/19 08:29:40;;;;;;;14.68;11.25;;;19.10;99.90;;;;;;5029170;28;20452;-43
2021/08/19 08:32:06;;;;;;;15.55;11.85;;;19.10;99.90;;;;;;5028175;28;20041;-44
2021/08/19 08:34:34;;;;;;;14.02;11.70;;;19.10;99.90;;;;;;5034578;28;20454;-45
2021/08/19 08:37:00;;;;;;;14.55;10.23;;;19.10;99.90;;;;;;5030964;28;20026;-41
2021/08/19 08:39:26;;;;;;;11.95;10.15;;;19.10;99.90;;;;;;5045214;28;20025;-43
2021/08/19 08:41:53;;;;;;;14.52;11.23;;;19.10;99.90;;;;;;5034316;28;20017;-42
2021/08/19 08:44:20;;;;;;;15.07;9.75;;;19.10;99.90;;;;;;5028941;28;20105;-41
2021/08/19 08:46:47;;;;;;;12.50;9.63;;;19.10;99.90;;;;;;5027051;28;20033;-40
2021/08/19 08:49:14;;;;;;;16.75;10.57;;;19.10;99.90;;;;;;5029443;28;20034;-40
2021/08/19 08:51:48;;;;;;;16.77;11.50;;;19.20;99.90;;;;;;5028725;28;20029;-40
2021/08/19 08:54:13;;;;;;;14.73;11.15;;;19.20;99.90;;;;;;5028548;28;20029;-41
2021/08/19 08:56:40;;;;;;;14.57;10.05;;;19.20;99.90;;;;;;5028444;28;20033;-39
2021/08/19 08:59:06;;;;;;;14.38;9.70;;;19.30;99.90;;;;;;5028232;28;20026;-41
2021/08/19 09:01:32;;;;;;;12.75;9.15;;;19.40;99.90;;;;;;5031145;28;20059;-42
2021/08/19 09:04:01;;;;;;;8.90;6.93;;;19.40;99.90;;;;;;5028539;28;20417;-42
2021/08/19 09:06:37;;;;;;;12.30;9.63;;;19.50;99.90;;;;;;5028876;28;20044;-42
2021/08/19 09:09:16;;;;;;;13.00;10.45;;;19.50;99.90;;;;;;5027940;28;20030;-40
2021/08/19 09:11:53;;;;;;;11.75;8.88;;;19.40;99.90;;;;;;5027875;28;20462;-40
2021/08/19 09:14:24;;;;;;;11.88;8.85;;;19.40;99.90;;;;;;5018897;28;20045;-42
2021/08/19 09:16:50;;;;;;;10.18;8.60;;;19.30;99.90;;;;;;5031663;28;20021;-41
2021/08/19 09:19:19;;;;;;;12.43;9.65;;;19.30;99.90;;;;;;5033081;28;20033;-42
2021/08/19 09:21:50;;;;;;;13.40;9.77;;;19.30;99.90;;;;;;5031821;28;20044;-42
2021/08/19 09:24:19;;;;;;;12.07;8.25;;;19.30;99.90;;;;;;5032660;28;20025;-41
2021/08/19 09:26:46;;;;;;;15.40;9.68;;;19.30;99.90;;;;;;5031780;28;20087;-40
2021/08/19 09:29:28;;;;;;;12.77;8.85;;;19.30;99.90;;;;;;5030446;28;20021;-38
2021/08/19 09:32:12;;;;;;;12.30;10.23;;;19.40;99.90;;;;;;5032069;28;20060;-41
2021/08/19 09:34:39;;;;;;;14.02;9.52;;;19.50;99.90;;;;;;5031395;28;20029;-42
2021/08/19 09:37:09;;;;;;;11.55;9.27;;;19.50;99.90;;;;;;5031305;28;20411;-38
2021/08/19 09:39:40;;;;;;;10.57;8.60;;;19.60;99.90;;;;;;5031347;28;20025;-39
2021/08/19 09:42:07;;;;;;;12.77;8.18;;;19.60;99.90;;;;;;5031853;28;20323;-41
2021/08/19 09:44:50;;;;;;;9.02;7.95;;;19.70;99.90;;;;;;5031920;28;20037;-40
2021/08/19 09:47:33;;;;;;;10.63;7.32;;;19.70;99.90;;;;;;5031853;28;20045;-40
2021/08/19 09:50:21;;;;;;;13.00;9.27;;;19.70;99.90;;;;;;5030366;28;20403;-44
2021/08/19 09:52:50;;;;;;;10.35;8.10;;;19.70;99.90;;;;;;5030691;28;20393;-42
2021/08/19 09:55:27;;;;;;;11.10;7.90;;;19.60;99.90;;;;;;5031620;28;20397;-43
2021/08/19 09:57:54;;;;;;;10.77;8.25;;;19.60;99.90;;;;;;5030664;28;20025;-41
2021/08/19 10:00:38;;;;;;;10.32;8.25;;;19.60;99.90;;;;;;5031853;28;20041;-42
2021/08/19 10:03:04;;;;;;;10.27;8.60;;;19.50;99.90;;;;;;5030997;28;20543;-41
2021/08/19 10:05:30;;;;;;;10.27;8.27;;;19.50;99.90;;;;;;5031631;28;20021;-44
2021/08/19 10:07:59;;;;;;;9.25;7.93;;;19.60;99.90;;;;;;5031522;28;20063;-38
2021/08/19 10:10:26;;;;;;;12.77;10.05;;;19.50;99.90;;;;;;5030706;28;20555;-40
2021/08/19 10:12:54;;;;;;;9.18;7.32;;;19.50;99.90;;;;;;5030461;28;20112;-40
2021/08/19 10:15:21;;;;;;;9.82;8.38;;;19.50;99.90;;;;;;5030692;28;20037;-41
2021/08/19 10:17:57;;;;;;;9.07;7.85;;;19.50;99.90;;;;;;5030201;28;20036;-39
2021/08/19 10:20:28;;;;;;;9.55;7.72;;;19.50;99.90;;;;;;5031475;28;20067;-42
2021/08/19 10:22:55;;;;;;;8.93;8.00;;;19.50;99.90;;;;;;5010993;28;20025;-41
2021/08/19 10:25:25;;;;;;;9.07;8.18;;;19.50;99.90;;;;;;5036836;28;20037;-44
2021/08/19 10:28:17;;;;;;;9.45;7.30;;;19.40;99.90;;;;;;5015495;28;20026;-44
2021/08/19 10:30:52;;;;;;;9.93;7.75;;;19.40;99.90;;;;;;5026651;28;20528;-42
2021/08/19 10:33:35;;;;;;;9.75;7.97;;;19.40;99.90;;;;;;5011134;28;20568;-41
2021/08/19 10:36:10;;;;;;;11.55;8.98;;;19.40;99.90;;;;;;5028274;28;20033;-41
2021/08/19 10:38:38;;;;;;;8.40;6.45;;;19.40;99.90;;;;;;5031030;28;20053;-39
2021/08/19 10:41:29;;;;;;;7.97;7.18;;;19.40;99.90;;;;;;5030500;28;20389;-40
2021/08/19 10:44:07;;;;;;;9.77;8.68;;;19.50;99.90;;;;;;5010514;28;20195;-42
2021/08/19 10:46:45;;;;;;;9.48;8.48;;;19.50;99.90;;;;;;5029125;28;20452;-42
2021/08/19 10:49:31;;;;;;;10.13;9.13;;;19.50;99.90;;;;;;5030562;28;20044;-43
2021/08/19 10:52:09;;;;;;;12.23;9.70;;;19.50;99.90;;;;;;5028832;28;20087;-41
2021/08/19 10:54:40;;;;;;;10.18;9.05;;;19.50;99.90;;;;;;5029874;28;20389;-40
2021/08/19 10:57:27;;;;;;;10.35;9.02;;;19.40;99.90;;;;;;5030046;28;20021;-41
2021/08/19 11:00:06;;;;;;;11.00;9.05;;;19.40;99.90;;;;;;5028669;28;20037;-43
2021/08/19 11:02:56;;;;;;;10.27;9.13;;;19.40;99.90;;;;;;5027502;28;20104;-41
2021/08/19 11:05:27;;;;;;;11.27;8.20;;;19.40;99.90;;;;;;5029963;28;20436;-40
2021/08/19 11:07:54;;;;;;;9.43;8.43;;;19.50;99.90;;;;;;5029783;28;20041;-38
2021/08/19 11:10:30;;;;;;;10.15;9.02;;;19.50;99.90;;;;;;5030876;28;20071;-41
2021/08/19 11:13:12;;;;;;;8.00;7.20;;;19.40;99.90;;;;;;5027093;28;20037;-44
2021/08/19 11:15:49;;;;;;;8.50;7.60;;;19.40;99.90;;;;;;5030138;28;20095;-40
2021/08/19 11:18:24;;;;;;;9.15;8.25;;;19.50;99.90;;;;;;5030953;28;20024;-39
2021/08/19 11:20:51;;;;;;;9.32;8.32;;;19.50;99.90;;;;;;5029336;28;20124;-44
2021/08/19 11:23:17;;;;;;;9.07;8.18;;;19.50;99.90;;;;;;5030210;28;20028;-42
2021/08/19 11:25:44;;;;;;;10.73;9.23;;;19.60;99.90;;;;;;5029822;28;20417;-39
2021/08/19 11:28:17;;;;;;;10.88;9.68;;;19.70;99.90;;;;;;5029073;28;20028;-43
2021/08/19 11:30:48;;;;;;;10.18;9.07;;;19.90;99.90;;;;;;5030160;28;20597;-43
2021/08/19 11:33:22;;;;;;;10.45;8.95;;;20.00;99.90;;;;;;5029862;28;20038;-38
2021/08/19 11:36:01;;;;;;;9.70;8.70;;;20.00;99.90;;;;;;5029026;28;20038;-44
2021/08/19 11:38:28;;;;;;;9.75;8.70;;;20.00;99.90;;;;;;5030297;28;20096;-43
2021/08/19 11:40:56;;;;;;;10.80;8.35;;;20.10;99.90;;;;;;5029342;28;20243;-40
2021/08/19 11:43:30;;;;;;;9.07;8.10;;;20.20;99.90;;;;;;5029256;28;20022;-43
2021/08/19 11:46:11;;;;;;;9.32;8.43;;;20.20;99.90;;;;;;5028955;28;20378;-43
2021/08/19 11:48:46;;;;;;;10.35;9.07;;;20.20;99.90;;;;;;5029181;28;20025;-41
2021/08/19 11:51:21;;;;;;;10.00;9.00;;;20.20;99.90;;;;;;5046448;28;20913;-44
2021/08/19 11:53:53;;;;;;;10.82;9.60;;;20.10;99.90;;;;;;5030516;28;20048;-39
2021/08/19 11:56:20;;;;;;;9.90;9.00;;;20.20;99.90;;;;;;5029089;28;20060;-40
2021/08/19 11:58:47;;;;;;;8.48;7.68;;;20.10;99.90;;;;;;5028942;28;20104;-41
2021/08/19 12:01:13;;;;;;;10.02;7.97;;;20.10;99.90;;;;;;5029968;28;20030;-40
2021/08/19 12:03:43;;;;;;;11.40;10.30;;;20.10;99.90;;;;;;5032070;28;20028;-41
2021/08/19 12:06:14;;;;;;;10.10;8.90;;;20.10;99.90;;;;;;5027857;28;20544;-41
2021/08/19 12:08:47;;;;;;;8.13;7.32;;;20.00;99.90;;;;;;5031877;28;20100;-42
2021/08/19 12:11:17;;;;;;;9.38;7.78;;;20.00;99.90;;;;;;5038566;28;20052;-39
2021/08/19 12:13:43;;;;;;;8.07;7.20;;;20.00;99.90;;;;;;5040058;28;20563;-41
2021/08/19 12:16:11;;;;;;;8.55;7.68;;;20.10;99.90;;;;;;5038661;28;20025;-40
2021/08/19 12:18:36;;;;;;;9.30;7.57;;;20.20;99.90;;;;;;5037780;28;20441;-42
2021/08/19 12:21:20;;;;;;;9.27;7.93;;;20.30;99.90;;;;;;5027911;28;20104;-39
2021/08/19 12:23:48;;;;;;;8.05;7.25;;;20.40;99.90;;;;;;5027454;28;20025;-44
2021/08/19 12:26:15;;;;;;;7.80;7.10;;;20.30;99.90;;;;;;5027779;28;20076;-42
2021/08/19 12:28:54;;;;;;;9.60;7.10;;;20.30;99.90;;;;;;5027921;28;20072;-44
2021/08/19 12:31:20;;;;;;;7.03;6.35;;;20.20;99.90;;;;;;5027716;28;20041;-44
2021/08/19 12:33:45;;;;;;;7.85;6.60;;;20.10;99.90;;;;;;5028672;28;20029;-41
2021/08/19 12:36:18;;;;;;;7.65;6.90;;;20.10;99.90;;;;;;5028826;28;20511;-38
2021/08/19 12:38:49;;;;;;;5.63;5.13;;;20.10;99.90;;;;;;5027846;28;20380;-40